createdAt,value
2023-03-06T00:02:38.343Z,13.05
2023-03-06T00:07:41.658Z,11.80
2023-03-06T00:12:44.341Z,17.13
2023-03-06T00:17:47.057Z,17.77
2023-03-06T00:22:50.382Z,19.80
2023-03-06T00:27:53.360Z,17.23
2023-03-06T00:32:56.160Z,21.13
2023-03-06T00:37:59.998Z,22.10
2023-03-06T00:43:02.861Z,19.75
2023-03-06T00:48:06.090Z,24.08
2023-03-06T00:53:08.691Z,16.45
2023-03-06T00:58:11.493Z,19.08
2023-03-06T01:03:14.320Z,16.43
2023-03-06T01:08:16.991Z,16.52
2023-03-06T01:13:19.684Z,16.38
2023-03-06T01:18:22.419Z,17.95
2023-03-06T01:23:25.062Z,15.05
2023-03-06T01:28:28.458Z,14.60
2023-03-06T01:33:31.584Z,14.88
2023-03-06T01:38:35.727Z,12.32
2023-03-06T01:43:42.615Z,12.10
2023-03-06T01:48:47.292Z,13.35
2023-03-06T01:53:51.318Z,11.77
2023-03-06T01:58:54.351Z,11.82
2023-03-06T02:03:57.050Z,15.27
2023-03-06T02:08:59.662Z,15.77
2023-03-06T02:14:02.804Z,15.57
2023-03-06T02:19:09.477Z,11.70
2023-03-06T02:24:32.623Z,11.48
2023-03-06T02:29:35.502Z,16.42
2023-03-06T02:34:39.065Z,16.55
2023-03-06T02:39:47.296Z,12.15
2023-03-06T02:44:51.664Z,12.83
2023-03-06T02:49:54.358Z,12.85
2023-03-06T02:54:57.033Z,18.88
2023-03-06T02:59:59.588Z,12.68
2023-03-06T03:05:02.738Z,14.02
2023-03-06T03:10:06.838Z,12.63
2023-03-06T03:15:10.507Z,17.33
2023-03-06T03:20:16.692Z,12.18
2023-03-06T03:25:20.424Z,11.77
2023-03-06T03:30:23.661Z,14.20
2023-03-06T03:35:26.633Z,13.43
2023-03-06T03:40:29.977Z,13.07
2023-03-06T03:45:34.924Z,15.98
2023-03-06T03:50:38.323Z,18.13
2023-03-06T03:55:41.367Z,16.75
2023-03-06T04:00:44.399Z,14.23
2023-03-06T04:05:50.027Z,11.80
2023-03-06T04:10:53.810Z,13.55
2023-03-06T04:15:57.301Z,13.82
2023-03-06T04:21:00.125Z,15.98
2023-03-06T04:26:03.887Z,11.87
2023-03-06T04:31:06.800Z,16.45
2023-03-06T04:36:25.588Z,16.75
2023-03-06T04:41:30.892Z,12.52
2023-03-06T04:46:34.804Z,13.13
2023-03-06T04:51:37.546Z,23.60
2023-03-06T04:56:40.253Z,15.93
2023-03-06T05:01:43.063Z,16.33
2023-03-06T05:06:45.603Z,17.15
2023-03-06T05:11:48.183Z,18.52
2023-03-06T05:16:50.815Z,18.30
2023-03-06T05:21:53.456Z,18.65
2023-03-06T05:26:56.009Z,15.13
2023-03-06T05:31:59.166Z,19.33
2023-03-06T05:37:02.103Z,17.23
2023-03-06T05:42:04.855Z,16.73
2023-03-06T05:47:08.916Z,18.23
2023-03-06T05:52:13.518Z,16.00
2023-03-06T05:57:16.048Z,18.17
2023-03-06T06:02:19.400Z,19.83
2023-03-06T06:07:22.025Z,16.83
2023-03-06T06:12:25.020Z,15.02
2023-03-06T06:17:27.681Z,19.95
2023-03-06T06:22:30.384Z,12.50
2023-03-06T06:27:33.285Z,15.20
2023-03-06T06:32:36.796Z,14.60
2023-03-06T06:37:39.516Z,15.40
2023-03-06T06:42:42.880Z,15.52
2023-03-06T06:47:46.404Z,14.20
2023-03-06T06:52:50.443Z,14.77
2023-03-06T06:57:53.618Z,15.07
2023-03-06T07:02:56.422Z,17.05
2023-03-06T07:07:59.385Z,13.52
2023-03-06T07:13:02.641Z,15.00
2023-03-06T07:18:05.476Z,7.95
2023-03-06T07:23:11.892Z,13.27
2023-03-06T07:28:14.879Z,13.43
2023-03-06T07:33:18.164Z,12.50
2023-03-06T07:38:20.975Z,7.97
2023-03-06T07:43:23.763Z,10.50
2023-03-06T07:48:36.168Z,8.43
2023-03-06T07:53:38.891Z,9.32
2023-03-06T07:58:44.141Z,10.82
2023-03-06T08:03:47.627Z,9.25
2023-03-06T08:08:52.075Z,11.50
2023-03-06T08:13:56.129Z,13.50
2023-03-06T08:18:59.107Z,6.43
2023-03-06T08:24:01.934Z,14.13
2023-03-06T08:29:04.765Z,11.35
2023-03-06T08:34:10.177Z,15.48
2023-03-06T08:39:14.451Z,12.87
2023-03-06T08:44:17.384Z,8.02
2023-03-06T08:49:20.140Z,8.38
2023-03-06T08:54:22.779Z,8.82
2023-03-06T08:59:25.601Z,8.73
2023-03-06T09:04:31.520Z,8.43
2023-03-06T09:09:34.192Z,7.35
2023-03-06T09:14:36.971Z,7.35
2023-03-06T09:19:39.699Z,5.60
2023-03-06T09:24:42.696Z,7.07
2023-03-06T09:29:45.550Z,5.87
2023-03-06T09:34:48.536Z,4.82
2023-03-06T09:39:51.206Z,6.30
2023-03-06T09:45:00.981Z,5.72
2023-03-06T09:50:06.737Z,5.57
2023-03-06T09:55:17.852Z,5.77
2023-03-06T10:00:26.724Z,8.55
2023-03-06T10:06:15.278Z,7.00
2023-03-06T10:11:25.323Z,7.90
2023-03-06T10:16:29.718Z,7.88
2023-03-06T10:21:54.243Z,6.53
2023-03-06T10:27:11.236Z,6.88
2023-03-06T10:32:26.086Z,7.70
2023-03-06T10:37:31.630Z,7.80
2023-03-06T10:42:35.196Z,9.77
2023-03-06T10:47:38.804Z,8.53
2023-03-06T10:52:41.474Z,8.60
2023-03-06T10:57:44.139Z,7.40
2023-03-06T11:02:46.960Z,8.18
2023-03-06T11:07:59.545Z,6.50
2023-03-06T11:13:19.270Z,8.53
2023-03-06T11:18:28.827Z,10.05
2023-03-06T11:23:46.886Z,8.80
2023-03-06T11:29:04.066Z,8.02
2023-03-06T11:34:18.984Z,8.50
2023-03-06T11:39:53.602Z,7.87
2023-03-06T11:45:20.143Z,9.48
2023-03-06T11:50:39.377Z,8.20
2023-03-06T11:56:00.573Z,9.50
2023-03-06T12:01:13.737Z,9.05
2023-03-06T12:06:30.235Z,8.73
2023-03-06T12:11:40.540Z,10.18
2023-03-06T12:17:12.984Z,10.40
2023-03-06T12:22:31.286Z,7.30
2023-03-06T12:27:58.668Z,9.25
2023-03-06T12:33:28.561Z,10.33
2023-03-06T12:38:43.340Z,10.43
2023-03-06T12:43:52.195Z,7.53
2023-03-06T12:49:11.190Z,8.82
2023-03-06T12:54:15.576Z,9.73
2023-03-06T12:59:37.360Z,7.13
2023-03-06T13:05:10.688Z,6.70
2023-03-06T13:10:34.065Z,7.78
2023-03-06T13:15:40.009Z,7.10
2023-03-06T13:20:45.179Z,9.35
2023-03-06T13:25:50.486Z,7.33
2023-03-06T13:30:53.477Z,9.40
2023-03-06T13:36:19.512Z,8.88
2023-03-06T13:41:25.325Z,7.72
2023-03-06T13:46:37.774Z,10.70
2023-03-06T13:51:52.921Z,7.00
2023-03-06T13:57:13.510Z,7.57
2023-03-06T14:02:48.120Z,7.88
2023-03-06T14:08:11.140Z,5.22
2023-03-06T14:13:34.939Z,7.85
2023-03-06T14:18:47.336Z,10.73
2023-03-06T14:24:01.817Z,6.22
2023-03-06T14:29:05.419Z,7.38
2023-03-06T14:34:15.495Z,6.57
2023-03-06T14:39:45.774Z,5.70
2023-03-06T14:44:59.948Z,5.20
2023-03-06T14:50:25.268Z,5.07
2023-03-06T14:55:30.277Z,6.50
2023-03-06T15:00:41.088Z,7.13
2023-03-06T15:05:46.906Z,7.45
2023-03-06T15:11:04.404Z,7.30
2023-03-06T15:16:30.156Z,8.65
2023-03-06T15:21:38.082Z,7.35
2023-03-06T15:26:41.373Z,9.85
2023-03-06T15:31:45.977Z,6.80
2023-03-06T15:36:51.680Z,7.23
2023-03-06T15:42:14.835Z,7.35
2023-03-06T15:47:17.800Z,7.35
2023-03-06T15:52:24.073Z,5.75
2023-03-06T15:57:31.296Z,5.65
2023-03-06T16:02:34.181Z,4.97
2023-03-06T16:07:37.208Z,6.20
2023-03-06T16:12:40.817Z,5.97
2023-03-06T16:17:43.515Z,6.47
2023-03-06T16:22:47.904Z,5.95
2023-03-06T16:27:59.762Z,5.13
2023-03-06T16:33:03.762Z,10.18
2023-03-06T16:38:06.595Z,5.65
2023-03-06T16:43:10.852Z,4.93
2023-03-06T16:48:17.408Z,6.28
2023-03-06T16:53:20.108Z,5.57
2023-03-06T16:58:23.024Z,11.52
2023-03-06T17:03:26.074Z,8.98
2023-03-06T17:08:28.984Z,8.55
2023-03-06T17:13:31.923Z,11.95
2023-03-06T17:18:34.765Z,8.93
2023-03-06T17:23:38.366Z,12.80
2023-03-06T17:28:41.943Z,12.32
2023-03-06T17:33:45.156Z,12.05
2023-03-06T17:38:47.922Z,12.35
2023-03-06T17:43:51.896Z,12.43
2023-03-06T17:48:55.736Z,14.85
2023-03-06T17:53:58.675Z,13.15
2023-03-06T17:59:01.659Z,14.80
2023-03-06T18:04:05.841Z,14.43
2023-03-06T18:09:10.283Z,14.27
2023-03-06T18:14:13.173Z,18.00
2023-03-06T18:19:16.731Z,20.25
2023-03-06T18:24:19.573Z,17.40
2023-03-06T18:29:22.530Z,13.48
2023-03-06T18:34:25.652Z,12.97
2023-03-06T18:39:28.585Z,18.67
2023-03-06T18:44:31.392Z,15.38
2023-03-06T18:49:34.153Z,17.30
2023-03-06T18:54:37.091Z,13.77
2023-03-06T18:59:40.024Z,19.20
2023-03-06T19:04:42.705Z,17.77
2023-03-06T19:09:47.868Z,16.30
2023-03-06T19:14:50.929Z,16.30
2023-03-06T19:19:55.450Z,21.42
2023-03-06T19:24:58.372Z,15.83
2023-03-06T19:30:01.218Z,11.85
2023-03-06T19:35:05.776Z,18.48
2023-03-06T19:40:09.641Z,15.52
2023-03-06T19:45:12.751Z,19.27
2023-03-06T19:50:15.872Z,17.07
2023-03-06T19:55:18.656Z,16.95
2023-03-06T20:00:21.689Z,20.75
2023-03-06T20:05:24.429Z,19.70
2023-03-06T20:10:27.286Z,17.88
2023-03-06T20:15:30.251Z,19.10
2023-03-06T20:20:33.155Z,16.70
2023-03-06T20:25:36.961Z,15.48
2023-03-06T20:30:39.680Z,14.88
2023-03-06T20:35:43.715Z,23.88
2023-03-06T20:40:46.761Z,20.37
2023-03-06T20:46:03.442Z,21.63
2023-03-06T20:51:28.877Z,18.75
2023-03-06T20:56:34.403Z,18.45
2023-03-06T21:01:41.353Z,17.50
2023-03-06T21:06:47.111Z,20.53
2023-03-06T21:11:50.158Z,19.73
2023-03-06T21:16:52.909Z,23.63
2023-03-06T21:21:55.835Z,18.63
2023-03-06T21:26:58.528Z,20.55
2023-03-06T21:32:01.437Z,21.17
2023-03-06T21:37:04.377Z,23.02
2023-03-06T21:42:07.253Z,16.90
2023-03-06T21:47:09.925Z,19.67
2023-03-06T21:52:13.044Z,18.30
2023-03-06T21:57:15.775Z,18.50
2023-03-06T22:02:18.363Z,20.33
2023-03-06T22:07:21.765Z,15.10
2023-03-06T22:12:24.776Z,22.55
2023-03-06T22:17:27.558Z,21.42
2023-03-06T22:22:31.319Z,28.73
2023-03-06T22:27:33.920Z,19.88
2023-03-06T22:32:36.520Z,12.93
2023-03-06T22:37:39.153Z,12.40
2023-03-06T22:42:41.773Z,11.98
2023-03-06T22:47:44.589Z,14.93
2023-03-06T22:52:47.320Z,12.48
2023-03-06T22:57:50.362Z,16.33
2023-03-06T23:02:53.077Z,11.77
2023-03-06T23:07:55.611Z,14.88
2023-03-06T23:12:58.197Z,11.40
2023-03-06T23:18:19.573Z,13.57
2023-03-06T23:23:41.506Z,14.00
2023-03-06T23:28:45.053Z,9.40
2023-03-06T23:33:48.244Z,14.85
2023-03-06T23:38:50.920Z,8.87
2023-03-06T23:43:55.123Z,12.77
2023-03-06T23:48:57.917Z,17.50
2023-03-06T23:54:01.238Z,10.70
2023-03-06T23:59:03.916Z,12.77
